Time;durP1;ratioP1;P1;durP2;ratioP2;P2;SDS_P1;SDS_P2;PMS_P1;PMS_P2;Temp;Humidity;BMP_temperature;BMP_pressure;BME280_temperature;BME280_humidity;BME280_pressure;Samples;Min_cycle;Max_cycle;Signal;HPM_P1;HPM_P2
2021/10/15 00:01:50;;;;;;;3;2.1;;;;;;;;;;;;;
2021/10/15 00:04:15;;;;;;;2.7;1.9;;;;;;;;;;;;;
2021/10/15 00:06:40;;;;;;;3.3;2.2;;;;;;;;;;;;;
2021/10/15 00:09:05;;;;;;;2.8;2.3;;;;;;;;;;;;;
2021/10/15 00:11:30;;;;;;;3.3;2.4;;;;;;;;;;;;;
2021/10/15 00:13:55;;;;;;;3.5;2.6;;;;;;;;;;;;;
2021/10/15 00:16:21;;;;;;;3.6;2.6;;;;;;;;;;;;;
2021/10/15 00:18:46;;;;;;;4.4;2.4;;;;;;;;;;;;;
2021/10/15 00:21:11;;;;;;;4.3;2.6;;;;;;;;;;;;;
2021/10/15 00:23:36;;;;;;;5.8;2.4;;;;;;;;;;;;;
2021/10/15 00:26:02;;;;;;;3;2.3;;;;;;;;;;;;;
2021/10/15 00:28:27;;;;;;;3.5;2.6;;;;;;;;;;;;;
2021/10/15 00:30:53;;;;;;;4.1;2.8;;;;;;;;;;;;;
2021/10/15 00:33:17;;;;;;;3.5;2.7;;;;;;;;;;;;;
2021/10/15 00:35:43;;;;;;;4.9;2.6;;;;;;;;;;;;;
2021/10/15 00:38:08;;;;;;;3.5;2.4;;;;;;;;;;;;;
2021/10/15 00:40:33;;;;;;;4.2;2.3;;;;;;;;;;;;;
2021/10/15 00:42:58;;;;;;;3.9;2.9;;;;;;;;;;;;;
2021/10/15 00:45:23;;;;;;;5.1;2.7;;;;;;;;;;;;;
2021/10/15 00:47:48;;;;;;;4.1;3.1;;;;;;;;;;;;;
2021/10/15 00:50:13;;;;;;;4.3;2.8;;;;;;;;;;;;;
2021/10/15 00:52:40;;;;;;;4.9;2.9;;;;;;;;;;;;;
2021/10/15 00:55:04;;;;;;;2.8;2.4;;;;;;;;;;;;;
2021/10/15 00:57:29;;;;;;;5;2.6;;;;;;;;;;;;;
2021/10/15 00:59:54;;;;;;;4.1;2.7;;;;;;;;;;;;;
2021/10/15 01:02:19;;;;;;;2.9;2.2;;;;;;;;;;;;;
2021/10/15 01:04:44;;;;;;;4.3;2.1;;;;;;;;;;;;;
2021/10/15 01:07:09;;;;;;;3.9;1.9;;;;;;;;;;;;;
2021/10/15 01:09:34;;;;;;;2.3;1.8;;;;;;;;;;;;;
2021/10/15 01:11:59;;;;;;;2.1;1.7;;;;;;;;;;;;;
2021/10/15 01:14:25;;;;;;;2.2;1.5;;;;;;;;;;;;;
2021/10/15 01:16:50;;;;;;;2;1.7;;;;;;;;;;;;;
2021/10/15 01:19:15;;;;;;;2.2;1.7;;;;;;;;;;;;;
2021/10/15 01:21:40;;;;;;;2.4;1.8;;;;;;;;;;;;;
2021/10/15 01:24:05;;;;;;;3.1;2;;;;;;;;;;;;;
2021/10/15 01:26:30;;;;;;;2.5;2.2;;;;;;;;;;;;;
2021/10/15 01:28:55;;;;;;;4.6;2.1;;;;;;;;;;;;;
2021/10/15 01:31:21;;;;;;;4;2.4;;;;;;;;;;;;;
2021/10/15 01:33:46;;;;;;;3;2.4;;;;;;;;;;;;;
2021/10/15 01:36:11;;;;;;;3.6;2.2;;;;;;;;;;;;;
2021/10/15 01:38:37;;;;;;;2.8;2;;;;;;;;;;;;;
2021/10/15 01:41:03;;;;;;;2;1.8;;;;;;;;;;;;;
2021/10/15 01:43:28;;;;;;;2.9;2.1;;;;;;;;;;;;;
2021/10/15 01:45:53;;;;;;;3;2.3;;;;;;;;;;;;;
2021/10/15 01:48:19;;;;;;;2.3;2.1;;;;;;;;;;;;;
2021/10/15 01:50:44;;;;;;;2.9;2.4;;;;;;;;;;;;;
2021/10/15 01:53:09;;;;;;;2.7;2.1;;;;;;;;;;;;;
2021/10/15 01:55:35;;;;;;;2.5;2.1;;;;;;;;;;;;;
2021/10/15 01:58:00;;;;;;;2.9;2.1;;;;;;;;;;;;;
2021/10/15 02:00:25;;;;;;;2.8;2;;;;;;;;;;;;;
2021/10/15 02:02:50;;;;;;;3;2.1;;;;;;;;;;;;;
2021/10/15 02:05:16;;;;;;;3.5;1.9;;;;;;;;;;;;;
2021/10/15 02:07:41;;;;;;;2.5;2;;;;;;;;;;;;;
2021/10/15 02:10:06;;;;;;;2.9;2.2;;;;;;;;;;;;;
2021/10/15 02:12:31;;;;;;;4.3;2.5;;;;;;;;;;;;;
2021/10/15 02:14:56;;;;;;;4.4;2.6;;;;;;;;;;;;;
2021/10/15 02:17:22;;;;;;;3.3;2.5;;;;;;;;;;;;;
2021/10/15 02:19:47;;;;;;;4.2;1.9;;;;;;;;;;;;;
2021/10/15 02:22:31;;;;;;;2.8;2.4;;;;;;;;;;;;;
2021/10/15 02:24:56;;;;;;;3.8;2.7;;;;;;;;;;;;;
2021/10/15 02:27:21;;;;;;;5.6;2.7;;;;;;;;;;;;;
2021/10/15 02:29:47;;;;;;;4.1;2.4;;;;;;;;;;;;;
2021/10/15 02:32:12;;;;;;;2.8;2.1;;;;;;;;;;;;;
2021/10/15 02:34:37;;;;;;;5.2;2.2;;;;;;;;;;;;;
2021/10/15 02:37:02;;;;;;;4.3;2.3;;;;;;;;;;;;;
2021/10/15 02:39:28;;;;;;;4.8;2.5;;;;;;;;;;;;;
2021/10/15 02:41:53;;;;;;;2.9;2.1;;;;;;;;;;;;;
2021/10/15 02:44:18;;;;;;;3.4;3.1;;;;;;;;;;;;;
2021/10/15 02:46:43;;;;;;;6.2;2.9;;;;;;;;;;;;;
2021/10/15 02:49:08;;;;;;;4.5;2.6;;;;;;;;;;;;;
2021/10/15 02:51:34;;;;;;;3.7;2.5;;;;;;;;;;;;;
2021/10/15 02:53:59;;;;;;;5.1;2.9;;;;;;;;;;;;;
2021/10/15 02:56:24;;;;;;;3.7;2.6;;;;;;;;;;;;;
2021/10/15 02:58:49;;;;;;;4.7;2.8;;;;;;;;;;;;;
2021/10/15 03:01:14;;;;;;;2.6;2.1;;;;;;;;;;;;;
2021/10/15 03:03:39;;;;;;;3.9;2.4;;;;;;;;;;;;;
2021/10/15 03:06:04;;;;;;;4.4;2.4;;;;;;;;;;;;;
2021/10/15 03:08:30;;;;;;;5.5;2.7;;;;;;;;;;;;;
2021/10/15 03:10:55;;;;;;;4.9;3.1;;;;;;;;;;;;;
2021/10/15 03:13:21;;;;;;;3.7;2.2;;;;;;;;;;;;;
2021/10/15 03:15:46;;;;;;;2.3;1.9;;;;;;;;;;;;;
2021/10/15 03:18:11;;;;;;;2.6;2.1;;;;;;;;;;;;;
2021/10/15 03:20:37;;;;;;;3.8;1.9;;;;;;;;;;;;;
2021/10/15 03:23:01;;;;;;;2.5;2;;;;;;;;;;;;;
2021/10/15 03:25:27;;;;;;;2.8;2;;;;;;;;;;;;;
2021/10/15 03:27:52;;;;;;;4.2;2.1;;;;;;;;;;;;;
2021/10/15 03:30:18;;;;;;;2.3;2;;;;;;;;;;;;;
2021/10/15 03:32:43;;;;;;;2.7;2.3;;;;;;;;;;;;;
2021/10/15 03:35:09;;;;;;;3.1;2.5;;;;;;;;;;;;;
2021/10/15 03:37:34;;;;;;;4.5;3.2;;;;;;;;;;;;;
2021/10/15 03:39:59;;;;;;;9.5;4.1;;;;;;;;;;;;;
2021/10/15 03:42:25;;;;;;;16.3;5.9;;;;;;;;;;;;;
2021/10/15 03:44:50;;;;;;;14.7;5.9;;;;;;;;;;;;;
2021/10/15 03:47:15;;;;;;;8.1;3.9;;;;;;;;;;;;;
2021/10/15 03:49:40;;;;;;;6.8;3.9;;;;;;;;;;;;;
2021/10/15 03:52:05;;;;;;;4.4;2.7;;;;;;;;;;;;;
2021/10/15 03:54:30;;;;;;;5.7;3.6;;;;;;;;;;;;;
2021/10/15 03:56:56;;;;;;;3.7;2.4;;;;;;;;;;;;;
2021/10/15 03:59:21;;;;;;;3.9;2.7;;;;;;;;;;;;;
2021/10/15 04:02:31;;;;;;;3.3;2.2;;;;;;;2.8;95.5166;940.9336;;;;
2021/10/15 04:04:56;;;;;;;5.2;2.7;;;;;;;2.85;94.7998;940.8713;;;;
2021/10/15 04:07:23;;;;;;;2.8;2.1;;;;;;;2.63;94.7041;940.8434;;;;
2021/10/15 04:10:34;;;;;;;3.3;2.5;;;;;;;2.63;94.72656;940.7545;;;;
2021/10/15 04:13:01;;;;;;;3.9;2.6;;;;;;;2.71;94.54102;940.783;;;;
2021/10/15 04:15:27;;;;;;;4.4;2.7;;;;;;;2.75;94.05762;940.7988;;;;
2021/10/15 04:17:53;;;;;;;7.4;3.6;;;;;;;2.63;94.14355;940.8002;;;;
2021/10/15 04:20:18;;;;;;;5.6;3.3;;;;;;;2.66;93.78027;940.7756;;;;
2021/10/15 04:22:45;;;;;;;6.6;4.2;;;;;;;2.64;93.89941;940.7991;;;;
2021/10/15 04:25:10;;;;;;;8.5;4.5;;;;;;;2.5;94.37402;940.7825;;;;
2021/10/15 04:27:36;;;;;;;7.9;4;;;;;;;2.55;94.89746;940.7766;;;;
2021/10/15 04:30:01;;;;;;;7;4;;;;;;;2.6;94.96582;940.7954;;;;
2021/10/15 04:32:29;;;;;;;6.5;3.7;;;;;;;2.4;95.58398;940.7944;;;;
2021/10/15 04:34:52;;;;;;;7;3.8;;;;;;;2.35;95.93066;940.7582;;;;
2021/10/15 04:37:17;;;;;;;6.6;4.3;;;;;;;2.34;96.03809;940.7374;;;;
2021/10/15 04:39:42;;;;;;;7.3;4.2;;;;;;;2.38;95.98145;940.7209;;;;
2021/10/15 04:42:07;;;;;;;7.4;4.2;;;;;;;2.34;95.79199;940.6949;;;;
2021/10/15 04:44:32;;;;;;;8.8;3.8;;;;;;;2.33;96.13867;940.675;;;;
2021/10/15 04:46:58;;;;;;;8.3;4.4;;;;;;;2.4;95.96289;940.6417;;;;
2021/10/15 04:49:23;;;;;;;6.1;4.4;;;;;;;2.59;94.81738;940.6055;;;;
2021/10/15 04:51:48;;;;;;;7;4.3;;;;;;;2.56;94.43066;940.5933;;;;
2021/10/15 04:54:14;;;;;;;4.9;4.1;;;;;;;2.53;93.91992;940.6219;;;;
2021/10/15 04:56:39;;;;;;;5.3;3.7;;;;;;;2.37;94.71289;940.5909;;;;
2021/10/15 04:59:04;;;;;;;5.4;2.8;;;;;;;2.18;95.5332;940.4622;;;;
2021/10/15 05:01:29;;;;;;;5.5;2.7;;;;;;;2.16;96.49219;940.4897;;;;
2021/10/15 05:03:56;;;;;;;4.1;2.7;;;;;;;2.17;96.45996;940.4509;;;;
2021/10/15 05:06:21;;;;;;;4.7;3.7;;;;;;;2.18;96.61914;940.4379;;;;
2021/10/15 05:17:12;;;;;;;10;5.2;;;;;;;2.28;95.33105;940.3728;;;;
2021/10/15 05:19:39;;;;;;;7.2;4.8;;;;;;;2.34;95.11914;940.4073;;;;
2021/10/15 05:22:04;;;;;;;5.5;3.4;;;;;;;2.43;95.94824;940.4037;;;;
2021/10/15 05:24:29;;;;;;;4.4;2.9;;;;;;;2.71;95.94434;940.4303;;;;
2021/10/15 05:26:54;;;;;;;4.9;3.1;;;;;;;2.75;95.19238;940.3753;;;;
2021/10/15 05:29:19;;;;;;;3.8;2.7;;;;;;;2.62;95.47559;940.4177;;;;
2021/10/15 05:31:44;;;;;;;5.9;2.8;;;;;;;2.65;96.17676;940.4104;;;;
2021/10/15 05:34:09;;;;;;;5.6;2.9;;;;;;;2.68;96.03711;940.3273;;;;
2021/10/15 05:36:35;;;;;;;5.7;3.3;;;;;;;2.9;95.86426;940.3418;;;;
2021/10/15 05:39:00;;;;;;;4.7;3.8;;;;;;;3;94.58496;940.3882;;;;
2021/10/15 05:41:37;;;;;;;2.6;2.4;;;;;;;3.15;93.95508;940.3433;;;;
2021/10/15 05:44:02;;;;;;;8.3;3.9;;;;;;;3.11;93.31836;940.3969;;;;
2021/10/15 05:46:27;;;;;;;4.9;4.2;;;;;;;2.89;93.16992;940.4498;;;;
2021/10/15 05:48:53;;;;;;;7.5;5.9;;;;;;;2.78;93.66211;940.4598;;;;
2021/10/15 05:51:18;;;;;;;9.5;5.4;;;;;;;2.56;94.6543;940.4321;;;;
2021/10/15 05:53:46;;;;;;;8.4;5.8;;;;;;;2.48;94.72656;940.3978;;;;
2021/10/15 05:58:57;;;;;;;10.5;6.2;;;;;;;2.65;94.75293;940.4055;;;;
2021/10/15 06:01:00;;;;;;;9.1;5.8;;;;;;;2.64;94.74902;940.4498;;;;
2021/10/15 06:03:25;;;;;;;8;4.1;;;;;;;2.79;95.82617;940.3887;;;;
2021/10/15 06:13:23;;;;;;;7.5;4.4;;;;;;;3.08;93.53516;940.397;;;;
2021/10/15 06:15:34;;;;;;;9.4;5.5;;;;;;;3.5;91.50586;940.373;;;;
2021/10/15 06:18:09;;;;;;;10.7;5.8;;;;;;;3.74;91.11816;940.3759;;;;
2021/10/15 06:20:26;;;;;;;7.9;4.6;;;;;;;4.05;90.18652;940.3474;;;;
2021/10/15 06:22:51;;;;;;;7;4;;;;;;;4.17;89.15234;940.3525;;;;
2021/10/15 06:25:16;;;;;;;9.7;5.7;;;;;;;3.85;89.19824;940.4514;;;;
2021/10/15 06:27:41;;;;;;;5.3;3.3;;;;;;;4.11;89.19727;940.3817;;;;
2021/10/15 06:30:07;;;;;;;10.6;3.6;;;;;;;4.16;88.75684;940.3694;;;;
2021/10/15 06:32:32;;;;;;;4.1;2.9;;;;;;;4.44;87.55566;940.3613;;;;
2021/10/15 06:34:57;;;;;;;2.5;1.9;;;;;;;4.74;86.20898;940.3413;;;;
2021/10/15 06:37:22;;;;;;;4.4;1.9;;;;;;;4.92;84.92676;940.2885;;;;
2021/10/15 06:39:47;;;;;;;3.3;2.1;;;;;;;5.13;85.66699;940.325;;;;
2021/10/15 06:42:13;;;;;;;7;4.2;;;;;;;5.02;84.65234;940.2856;;;;
2021/10/15 06:44:38;;;;;;;7.5;4.5;;;;;;;4.98;85.30957;940.2889;;;;
2021/10/15 06:47:03;;;;;;;13.7;5;;;;;;;5.06;85.41602;940.168;;;;
2021/10/15 06:49:28;;;;;;;7.4;4.3;;;;;;;5.01;85.15723;940.1372;;;;
2021/10/15 06:51:53;;;;;;;8.4;3.9;;;;;;;4.96;85.16895;940.3063;;;;
2021/10/15 06:54:18;;;;;;;7.8;4;;;;;;;4.9;85.6875;940.2916;;;;
2021/10/15 06:56:43;;;;;;;7.1;4;;;;;;;4.87;86.11035;940.3142;;;;
2021/10/15 06:59:09;;;;;;;11.2;4.4;;;;;;;4.98;86.42578;940.3323;;;;
2021/10/15 07:01:34;;;;;;;7.6;4;;;;;;;5.06;85.63965;940.354;;;;
2021/10/15 07:03:59;;;;;;;7.8;3.7;;;;;;;5.33;85.40234;940.3617;;;;
2021/10/15 07:06:24;;;;;;;8.6;3.9;;;;;;;5.45;84.57031;940.313;;;;
2021/10/15 07:08:49;;;;;;;4.7;3.1;;;;;;;5.6;84.89258;940.3168;;;;
2021/10/15 07:11:15;;;;;;;4.8;2.7;;;;;;;;;;;;;
2021/10/15 07:13:40;;;;;;;3.3;2.4;;;;;;;;;;;;;
2021/10/15 07:16:05;;;;;;;3;2;;;;;;;;;;;;;
2021/10/15 07:18:30;;;;;;;6.3;2.7;;;;;;;;;;;;;
2021/10/15 07:20:56;;;;;;;4.6;2.1;;;;;;;;;;;;;
2021/10/15 07:23:21;;;;;;;5;2.4;;;;;;;;;;;;;
2021/10/15 07:25:47;;;;;;;3;2.3;;;;;;;;;;;;;
2021/10/15 07:28:11;;;;;;;4.2;2.3;;;;;;;;;;;;;
2021/10/15 07:30:37;;;;;;;4.6;2;;;;;;;;;;;;;
2021/10/15 07:33:02;;;;;;;3.5;1.9;;;;;;;;;;;;;
2021/10/15 07:35:27;;;;;;;3;2.2;;;;;;;;;;;;;
2021/10/15 07:37:52;;;;;;;3.1;1.8;;;;;;;;;;;;;
2021/10/15 07:40:17;;;;;;;5.4;1.9;;;;;;;;;;;;;
2021/10/15 07:42:42;;;;;;;5.6;2.3;;;;;;;;;;;;;
2021/10/15 07:45:08;;;;;;;5.3;1.9;;;;;;;;;;;;;
2021/10/15 07:47:33;;;;;;;2.6;1.9;;;;;;;;;;;;;
2021/10/15 07:49:58;;;;;;;4.6;1.8;;;;;;;;;;;;;
2021/10/15 07:52:23;;;;;;;2.1;1.3;;;;;;;;;;;;;
2021/10/15 07:54:48;;;;;;;2.5;1.5;;;;;;;;;;;;;
2021/10/15 07:57:13;;;;;;;2.3;1.5;;;;;;;;;;;;;
2021/10/15 07:59:38;;;;;;;1.7;1.6;;;;;;;;;;;;;
2021/10/15 08:02:04;;;;;;;2.1;1.6;;;;;;;;;;;;;
2021/10/15 08:04:30;;;;;;;2.2;1.2;;;;;;;;;;;;;
2021/10/15 08:06:55;;;;;;;2.3;1.2;;;;;;;;;;;;;
2021/10/15 08:09:20;;;;;;;25.7;12.6;;;;;;;;;;;;;
2021/10/15 08:11:45;;;;;;;3.8;1.3;;;;;;;;;;;;;
2021/10/15 08:14:10;;;;;;;4.6;2;;;;;;;;;;;;;
2021/10/15 08:16:35;;;;;;;2;1.3;;;;;;;;;;;;;
2021/10/15 08:19:00;;;;;;;3.9;2.2;;;;;;;;;;;;;
2021/10/15 08:21:25;;;;;;;1.9;1.3;;;;;;;;;;;;;
2021/10/15 08:23:50;;;;;;;2.2;1.1;;;;;;;;;;;;;
2021/10/15 08:26:16;;;;;;;2.8;1.3;;;;;;;;;;;;;
2021/10/15 08:28:41;;;;;;;2.7;1.5;;;;;;;;;;;;;
2021/10/15 08:31:06;;;;;;;3.6;1.4;;;;;;;;;;;;;
2021/10/15 08:33:32;;;;;;;3.3;1.6;;;;;;;;;;;;;
2021/10/15 08:35:57;;;;;;;6.6;3.4;;;;;;;;;;;;;
2021/10/15 08:38:22;;;;;;;3.4;1.6;;;;;;;;;;;;;
2021/10/15 08:40:47;;;;;;;1.2;1.1;;;;;;;;;;;;;
2021/10/15 08:43:12;;;;;;;3.6;2.1;;;;;;;;;;;;;
2021/10/15 08:45:37;;;;;;;2.2;1.2;;;;;;;;;;;;;
2021/10/15 08:48:02;;;;;;;1.9;1.2;;;;;;;;;;;;;
2021/10/15 08:50:28;;;;;;;3.9;1.8;;;;;;;;;;;;;
2021/10/15 08:52:53;;;;;;;3.2;1.3;;;;;;;;;;;;;
2021/10/15 08:55:18;;;;;;;3.4;2.2;;;;;;;;;;;;;
2021/10/15 08:57:43;;;;;;;2.9;2.1;;;;;;;;;;;;;
2021/10/15 09:00:10;;;;;;;1.4;1.3;;;;;;;;;;;;;
2021/10/15 09:02:35;;;;;;;1.6;1.4;;;;;;;;;;;;;
2021/10/15 09:05:00;;;;;;;2.1;1.2;;;;;;;;;;;;;
2021/10/15 09:07:25;;;;;;;2.3;1.2;;;;;;;;;;;;;
2021/10/15 09:09:56;;;;;;;2.2;1.1;;;;;;;;;;;;;
2021/10/15 09:12:21;;;;;;;1.2;1.1;;;;;;;;;;;;;
2021/10/15 09:14:47;;;;;;;1.9;1.2;;;;;;;;;;;;;
2021/10/15 09:17:12;;;;;;;1.5;1.3;;;;;;;;;;;;;
2021/10/15 09:19:37;;;;;;;4.4;3;;;;;;;;;;;;;
2021/10/15 09:22:02;;;;;;;1.4;1.2;;;;;;;;;;;;;
2021/10/15 09:24:27;;;;;;;1.5;1.2;;;;;;;;;;;;;
2021/10/15 09:26:52;;;;;;;2.8;1.4;;;;;;;;;;;;;
2021/10/15 09:29:18;;;;;;;1.5;1.1;;;;;;;;;;;;;
2021/10/15 09:31:43;;;;;;;3.7;1.5;;;;;;;;;;;;;
2021/10/15 09:34:08;;;;;;;2.5;1.4;;;;;;;;;;;;;
2021/10/15 09:36:33;;;;;;;1;0.8;;;;;;;;;;;;;
2021/10/15 09:38:58;;;;;;;1;0.9;;;;;;;;;;;;;
2021/10/15 09:41:23;;;;;;;2.4;1.1;;;;;;;;;;;;;
2021/10/15 09:43:49;;;;;;;1.6;0.9;;;;;;;;;;;;;
2021/10/15 09:46:14;;;;;;;1.2;0.9;;;;;;;;;;;;;
2021/10/15 09:48:39;;;;;;;1.4;1.1;;;;;;;;;;;;;
2021/10/15 09:51:04;;;;;;;0.9;0.9;;;;;;;;;;;;;
2021/10/15 09:53:29;;;;;;;1.3;0.9;;;;;;;;;;;;;
2021/10/15 09:55:56;;;;;;;1.1;0.9;;;;;;;;;;;;;
2021/10/15 09:58:24;;;;;;;2;1.1;;;;;;;;;;;;;
2021/10/15 10:00:55;;;;;;;1.4;0.9;;;;;;;;;;;;;
2021/10/15 10:03:12;;;;;;;2.6;1.4;;;;;;;;;;;;;
2021/10/15 10:05:37;;;;;;;1.3;1.1;;;;;;;;;;;;;
2021/10/15 10:08:02;;;;;;;3.2;1;;;;;;;;;;;;;
2021/10/15 10:10:27;;;;;;;1.2;1;;;;;;;;;;;;;
2021/10/15 10:12:52;;;;;;;0.9;0.9;;;;;;;;;;;;;
2021/10/15 10:15:17;;;;;;;1.1;1;;;;;;;;;;;;;
2021/10/15 10:17:42;;;;;;;1.1;1;;;;;;;;;;;;;
2021/10/15 10:20:07;;;;;;;1.8;1.1;;;;;;;;;;;;;
2021/10/15 10:22:32;;;;;;;1.2;0.9;;;;;;;;;;;;;
2021/10/15 10:24:58;;;;;;;2.3;1.2;;;;;;;;;;;;;
2021/10/15 10:27:23;;;;;;;0.8;0.8;;;;;;;;;;;;;
2021/10/15 10:29:53;;;;;;;1.4;1.1;;;;;;;;;;;;;
2021/10/15 10:32:13;;;;;;;1.4;1.2;;;;;;;;;;;;;
2021/10/15 10:34:38;;;;;;;1.3;1.2;;;;;;;;;;;;;
2021/10/15 10:37:03;;;;;;;2.9;1;;;;;;;;;;;;;
2021/10/15 10:39:29;;;;;;;3.3;0.9;;;;;;;;;;;;;
2021/10/15 10:41:54;;;;;;;1.4;0.9;;;;;;;;;;;;;
2021/10/15 10:44:19;;;;;;;3.3;1.1;;;;;;;;;;;;;
2021/10/15 10:46:45;;;;;;;1;0.9;;;;;;;;;;;;;
2021/10/15 10:49:10;;;;;;;1.5;1;;;;;;;;;;;;;
2021/10/15 10:51:35;;;;;;;1.9;1.2;;;;;;;;;;;;;
2021/10/15 10:54:00;;;;;;;1.5;1.1;;;;;;;;;;;;;
2021/10/15 10:56:25;;;;;;;3.9;1.1;;;;;;;;;;;;;
2021/10/15 10:58:50;;;;;;;1.3;1;;;;;;;;;;;;;
2021/10/15 11:01:15;;;;;;;1.4;1.1;;;;;;;;;;;;;
2021/10/15 11:03:41;;;;;;;1.2;0.9;;;;;;;;;;;;;
2021/10/15 11:06:06;;;;;;;2;0.8;;;;;;;;;;;;;
2021/10/15 11:08:34;;;;;;;0.7;0.7;;;;;;;;;;;;;
2021/10/15 11:10:56;;;;;;;2.6;1;;;;;;;;;;;;;
2021/10/15 11:13:21;;;;;;;0.9;0.9;;;;;;;;;;;;;
2021/10/15 11:15:47;;;;;;;1.1;1;;;;;;;;;;;;;
2021/10/15 11:18:27;;;;;;;1;0.8;;;;;;;;;;;;;
2021/10/15 11:20:50;;;;;;;1;0.7;;;;;;;;;;;;;
2021/10/15 11:23:16;;;;;;;0.7;0.7;;;;;;;;;;;;;
2021/10/15 11:25:50;;;;;;;1;0.8;;;;;;;;;;;;;
2021/10/15 11:28:06;;;;;;;0.8;0.7;;;;;;;;;;;;;
2021/10/15 11:30:31;;;;;;;0.9;0.8;;;;;;;;;;;;;
2021/10/15 11:32:56;;;;;;;0.6;0.6;;;;;;;;;;;;;
2021/10/15 11:35:22;;;;;;;0.6;0.6;;;;;;;;;;;;;
2021/10/15 11:37:47;;;;;;;0.8;0.8;;;;;;;;;;;;;
2021/10/15 11:40:12;;;;;;;1;0.8;;;;;;;;;;;;;
2021/10/15 11:42:38;;;;;;;1.3;0.6;;;;;;;;;;;;;
2021/10/15 11:45:03;;;;;;;1.3;0.6;;;;;;;;;;;;;
2021/10/15 11:47:28;;;;;;;0.5;0.5;;;;;;;;;;;;;
2021/10/15 11:49:54;;;;;;;0.5;0.5;;;;;;;;;;;;;
2021/10/15 11:52:18;;;;;;;2.1;0.6;;;;;;;;;;;;;
2021/10/15 11:54:44;;;;;;;0.7;0.7;;;;;;;;;;;;;
2021/10/15 11:57:09;;;;;;;1.1;0.9;;;;;;;;;;;;;
2021/10/15 11:59:35;;;;;;;1;0.5;;;;;;;;;;;;;
2021/10/15 12:01:59;;;;;;;0.7;0.6;;;;;;;;;;;;;
2021/10/15 12:04:24;;;;;;;0.9;0.8;;;;;;;;;;;;;
2021/10/15 12:06:51;;;;;;;0.7;0.7;;;;;;;;;;;;;
2021/10/15 12:09:15;;;;;;;0.8;0.7;;;;;;;;;;;;;
2021/10/15 12:11:40;;;;;;;0.6;0.6;;;;;;;;;;;;;
2021/10/15 12:14:05;;;;;;;0.8;0.8;;;;;;;;;;;;;
2021/10/15 12:16:30;;;;;;;0.9;0.8;;;;;;;;;;;;;
2021/10/15 12:18:55;;;;;;;0.7;0.6;;;;;;;;;;;;;
2021/10/15 12:21:21;;;;;;;1;0.6;;;;;;;;;;;;;
2021/10/15 12:23:51;;;;;;;0.8;0.8;;;;;;;;;;;;;
2021/10/15 12:26:17;;;;;;;16.7;1.9;;;;;;;;;;;;;
2021/10/15 12:28:41;;;;;;;0.9;0.9;;;;;;;;;;;;;
2021/10/15 12:31:07;;;;;;;0.8;0.6;;;;;;;;;;;;;
2021/10/15 12:33:32;;;;;;;0.7;0.7;;;;;;;;;;;;;
2021/10/15 12:35:57;;;;;;;0.7;0.7;;;;;;;;;;;;;
2021/10/15 12:38:28;;;;;;;0.7;0.7;;;;;;;;;;;;;
2021/10/15 12:40:54;;;;;;;0.8;0.7;;;;;;;;;;;;;
2021/10/15 12:43:19;;;;;;;1;0.6;;;;;;;;;;;;;
2021/10/15 12:45:46;;;;;;;0.8;0.7;;;;;;;;;;;;;
2021/10/15 12:48:11;;;;;;;0.9;0.8;;;;;;;;;;;;;
2021/10/15 12:50:36;;;;;;;0.9;0.7;;;;;;;;;;;;;
2021/10/15 12:53:11;;;;;;;1.2;0.7;;;;;;;;;;;;;
2021/10/15 12:55:36;;;;;;;1;0.7;;;;;;;;;;;;;
2021/10/15 12:58:01;;;;;;;0.8;0.8;;;;;;;;;;;;;
2021/10/15 13:00:27;;;;;;;1.2;0.6;;;;;;;;;;;;;
2021/10/15 13:02:52;;;;;;;0.8;0.6;;;;;;;;;;;;;
2021/10/15 13:05:17;;;;;;;0.6;0.6;;;;;;;;;;;;;
2021/10/15 13:07:44;;;;;;;2.9;0.7;;;;;;;;;;;;;
2021/10/15 13:10:07;;;;;;;0.6;0.6;;;;;;;;;;;;;
2021/10/15 13:12:32;;;;;;;0.8;0.8;;;;;;;;;;;;;
2021/10/15 13:14:57;;;;;;;0.8;0.6;;;;;;;;;;;;;
2021/10/15 13:17:23;;;;;;;1.7;0.6;;;;;;;;;;;;;
2021/10/15 13:19:48;;;;;;;0.6;0.6;;;;;;;;;;;;;
2021/10/15 13:22:14;;;;;;;0.9;0.7;;;;;;;;;;;;;
2021/10/15 13:24:39;;;;;;;0.7;0.6;;;;;;;;;;;;;
2021/10/15 13:27:05;;;;;;;0.7;0.7;;;;;;;;;;;;;
2021/10/15 13:29:30;;;;;;;1;0.4;;;;;;;;;;;;;
2021/10/15 13:31:57;;;;;;;1;0.8;;;;;;;;;;;;;
2021/10/15 13:34:22;;;;;;;0.9;0.8;;;;;;;;;;;;;
2021/10/15 13:36:50;;;;;;;0.5;0.5;;;;;;;;;;;;;
2021/10/15 13:39:14;;;;;;;1.7;0.6;;;;;;;;;;;;;
2021/10/15 13:42:01;;;;;;;0.7;0.6;;;;;;;;;;;;;
2021/10/15 13:44:13;;;;;;;1.4;0.7;;;;;;;;;;;;;
2021/10/15 13:46:35;;;;;;;0.7;0.6;;;;;;;;;;;;;
2021/10/15 13:51:23;;;;;;;2.4;0.7;;;;;;;;;;;;;
2021/10/15 13:53:45;;;;;;;2.7;1.1;;;;;;;;;;;;;
2021/10/15 13:56:10;;;;;;;2.3;1.7;;;;;;;;;;;;;
2021/10/15 13:58:37;;;;;;;2.9;1.8;;;;;;;;;;;;;
2021/10/15 14:01:04;;;;;;;1.8;1.4;;;;;;;;;;;;;
2021/10/15 14:03:54;;;;;;;0.8;0.8;;;;;;;;;;;;;
2021/10/15 14:05:55;;;;;;;0.7;0.7;;;;;;;;;;;;;
2021/10/15 14:08:20;;;;;;;0.9;0.6;;;;;;;;;;;;;
2021/10/15 14:10:53;;;;;;;0.7;0.7;;;;;;;;;;;;;
2021/10/15 14:13:19;;;;;;;0.5;0.5;;;;;;;;;;;;;
2021/10/15 14:15:47;;;;;;;0.6;0.6;;;;;;;;;;;;;
2021/10/15 14:18:13;;;;;;;0.7;0.7;;;;;;;;;;;;;
2021/10/15 14:20:39;;;;;;;0.7;0.7;;;;;;;;;;;;;
2021/10/15 14:23:04;;;;;;;0.7;0.7;;;;;;;;;;;;;
2021/10/15 14:25:30;;;;;;;0.7;0.7;;;;;;;;;;;;;
2021/10/15 14:27:55;;;;;;;1.9;0.8;;;;;;;;;;;;;
2021/10/15 14:30:22;;;;;;;0.7;0.7;;;;;;;;;;;;;
2021/10/15 14:32:49;;;;;;;1.3;0.6;;;;;;;;;;;;;
2021/10/15 14:35:16;;;;;;;0.7;0.6;;;;;;;;;;;;;
2021/10/15 14:37:41;;;;;;;0.9;0.7;;;;;;;;;;;;;
2021/10/15 14:40:10;;;;;;;0.9;0.6;;;;;;;;;;;;;
2021/10/15 14:42:35;;;;;;;0.7;0.7;;;;;;;;;;;;;
2021/10/15 14:45:00;;;;;;;1.8;0.7;;;;;;;;;;;;;
2021/10/15 14:47:25;;;;;;;1;0.7;;;;;;;;;;;;;
2021/10/15 14:49:51;;;;;;;1.8;1.1;;;;;;;;;;;;;
2021/10/15 14:52:15;;;;;;;0.6;0.6;;;;;;;;;;;;;
2021/10/15 14:54:41;;;;;;;1.1;1;;;;;;;;;;;;;
2021/10/15 14:57:06;;;;;;;0.5;0.5;;;;;;;;;;;;;
2021/10/15 14:59:32;;;;;;;2.3;1.3;;;;;;;;;;;;;
2021/10/15 15:01:57;;;;;;;3;1.2;;;;;;;;;;;;;
2021/10/15 15:04:22;;;;;;;1.2;1.1;;;;;;;;;;;;;
2021/10/15 15:06:49;;;;;;;3.2;1.9;;;;;;;;;;;;;
2021/10/15 15:09:14;;;;;;;1.1;0.8;;;;;;;;;;;;;
2021/10/15 15:11:40;;;;;;;1;0.9;;;;;;;;;;;;;
2021/10/15 15:14:05;;;;;;;1.4;1;;;;;;;;;;;;;
2021/10/15 15:16:34;;;;;;;0.7;0.7;;;;;;;;;;;;;
2021/10/15 15:18:59;;;;;;;1.3;0.7;;;;;;;;;;;;;
2021/10/15 15:21:25;;;;;;;1.6;0.8;;;;;;;;;;;;;
2021/10/15 15:23:50;;;;;;;1.6;0.8;;;;;;;;;;;;;
2021/10/15 15:26:15;;;;;;;1.4;0.8;;;;;;;;;;;;;
2021/10/15 15:28:40;;;;;;;1.6;1;;;;;;;;;;;;;
2021/10/15 15:31:09;;;;;;;1.5;1.4;;;;;;;;;;;;;
2021/10/15 15:33:35;;;;;;;1.7;1.2;;;;;;;;;;;;;
2021/10/15 15:36:00;;;;;;;1.3;1.2;;;;;;;;;;;;;
2021/10/15 15:38:25;;;;;;;2.5;1.4;;;;;;;;;;;;;
2021/10/15 15:40:50;;;;;;;2;1.3;;;;;;;;;;;;;
2021/10/15 15:43:16;;;;;;;2.1;1.1;;;;;;;;;;;;;
2021/10/15 15:45:46;;;;;;;1.8;0.9;;;;;;;;;;;;;
2021/10/15 15:48:08;;;;;;;1.2;1;;;;;;;;;;;;;
2021/10/15 15:50:33;;;;;;;1.4;1.1;;;;;;;;;;;;;
2021/10/15 15:52:58;;;;;;;1.6;1;;;;;;;;;;;;;
2021/10/15 15:55:23;;;;;;;1.5;1.3;;;;;;;;;;;;;
2021/10/15 15:57:49;;;;;;;2.8;1;;;;;;;;;;;;;
2021/10/15 16:00:14;;;;;;;1.2;1.1;;;;;;;;;;;;;
2021/10/15 16:02:40;;;;;;;2.5;1.6;;;;;;;;;;;;;
2021/10/15 16:05:05;;;;;;;2.7;1.8;;;;;;;;;;;;;
2021/10/15 16:07:33;;;;;;;3.3;1.7;;;;;;;;;;;;;
2021/10/15 16:09:58;;;;;;;2.3;1.8;;;;;;;;;;;;;
2021/10/15 16:12:24;;;;;;;2.9;2.1;;;;;;;;;;;;;
2021/10/15 16:14:49;;;;;;;2.1;1.9;;;;;;;;;;;;;
2021/10/15 16:17:14;;;;;;;5.7;2.7;;;;;;;;;;;;;
2021/10/15 16:19:40;;;;;;;3;2.4;;;;;;;;;;;;;
2021/10/15 16:22:08;;;;;;;3.5;2.1;;;;;;;;;;;;;
2021/10/15 16:24:33;;;;;;;3.5;2.4;;;;;;;;;;;;;
2021/10/15 16:26:58;;;;;;;3.2;2.5;;;;;;;;;;;;;
2021/10/15 16:29:25;;;;;;;4.6;3.4;;;;;;;;;;;;;
2021/10/15 16:31:49;;;;;;;6.3;3.4;;;;;;;;;;;;;
2021/10/15 16:34:14;;;;;;;3.3;2.5;;;;;;;;;;;;;
2021/10/15 16:36:39;;;;;;;6;3.4;;;;;;;;;;;;;
2021/10/15 16:39:04;;;;;;;6.2;3.9;;;;;;;;;;;;;
2021/10/15 16:41:29;;;;;;;3.8;2.8;;;;;;;;;;;;;
2021/10/15 16:43:54;;;;;;;2.3;1.8;;;;;;;;;;;;;
2021/10/15 16:46:19;;;;;;;2.8;1.6;;;;;;;;;;;;;
2021/10/15 16:48:45;;;;;;;4.6;2.8;;;;;;;;;;;;;
2021/10/15 16:51:10;;;;;;;3.4;2.1;;;;;;;;;;;;;
2021/10/15 16:53:37;;;;;;;4.9;3.6;;;;;;;;;;;;;
2021/10/15 16:56:02;;;;;;;8;4.2;;;;;;;;;;;;;
2021/10/15 16:58:27;;;;;;;9.4;5.6;;;;;;;;;;;;;
2021/10/15 17:00:52;;;;;;;7.4;4.7;;;;;;;;;;;;;
2021/10/15 17:03:18;;;;;;;4;3;;;;;;;;;;;;;
2021/10/15 17:05:43;;;;;;;7.7;3.6;;;;;;;;;;;;;
2021/10/15 17:08:08;;;;;;;7;4.5;;;;;;;;;;;;;
2021/10/15 17:10:35;;;;;;;9;5.5;;;;;;;;;;;;;
2021/10/15 17:13:00;;;;;;;10.6;5.8;;;;;;;;;;;;;
2021/10/15 17:15:29;;;;;;;10;5.9;;;;;;;;;;;;;
2021/10/15 17:17:54;;;;;;;8.9;5.2;;;;;;;;;;;;;
2021/10/15 17:20:19;;;;;;;7.5;3.9;;;;;;;;;;;;;
2021/10/15 17:22:44;;;;;;;8;5;;;;;;;;;;;;;
2021/10/15 17:25:10;;;;;;;10.2;6.9;;;;;;;;;;;;;
2021/10/15 17:27:36;;;;;;;15.7;8.5;;;;;;;;;;;;;
2021/10/15 17:30:01;;;;;;;13.6;8;;;;;;;;;;;;;
2021/10/15 17:32:26;;;;;;;11.6;8.1;;;;;;;;;;;;;
2021/10/15 17:34:51;;;;;;;13;8.6;;;;;;;;;;;;;
2021/10/15 17:37:16;;;;;;;12.4;8.7;;;;;;;;;;;;;
2021/10/15 17:39:42;;;;;;;13.7;8.2;;;;;;;;;;;;;
2021/10/15 17:42:07;;;;;;;10.6;7;;;;;;;;;;;;;
2021/10/15 17:44:33;;;;;;;9.3;6.4;;;;;;;;;;;;;
2021/10/15 17:46:58;;;;;;;11.7;6.4;;;;;;;;;;;;;
2021/10/15 17:49:23;;;;;;;10.2;7;;;;;;;;;;;;;
2021/10/15 17:51:48;;;;;;;11.1;6.9;;;;;;;;;;;;;
2021/10/15 17:54:13;;;;;;;9.7;6.9;;;;;;;;;;;;;
2021/10/15 17:56:38;;;;;;;9.2;6.3;;;;;;;;;;;;;
2021/10/15 17:59:05;;;;;;;9.3;6.8;;;;;;;;;;;;;
2021/10/15 18:01:30;;;;;;;10;7.2;;;;;;;;;;;;;
2021/10/15 18:03:57;;;;;;;8.9;6.4;;;;;;;;;;;;;
2021/10/15 18:06:22;;;;;;;9.2;6.9;;;;;;;;;;;;;
2021/10/15 18:08:48;;;;;;;10.7;6.9;;;;;;;;;;;;;
2021/10/15 18:11:13;;;;;;;8.8;6.5;;;;;;;;;;;;;
2021/10/15 18:13:39;;;;;;;10.9;7.1;;;;;;;;;;;;;
2021/10/15 18:16:04;;;;;;;11.1;6.9;;;;;;;;;;;;;
2021/10/15 18:18:31;;;;;;;12.2;6.8;;;;;;;;;;;;;
2021/10/15 18:20:56;;;;;;;8.2;5.2;;;;;;;;;;;;;
2021/10/15 18:23:21;;;;;;;7.2;4.3;;;;;;;;;;;;;
2021/10/15 18:25:50;;;;;;;7.2;4;;;;;;;;;;;;;
2021/10/15 18:28:14;;;;;;;6.1;4;;;;;;;;;;;;;
2021/10/15 18:30:40;;;;;;;5.2;3.5;;;;;;;;;;;;;
2021/10/15 18:33:05;;;;;;;5.8;3.3;;;;;;;;;;;;;
2021/10/15 18:35:32;;;;;;;6.2;3.1;;;;;;;;;;;;;
2021/10/15 18:37:58;;;;;;;4.6;3.4;;;;;;;;;;;;;
2021/10/15 18:40:28;;;;;;;5.4;3.9;;;;;;;;;;;;;
2021/10/15 18:42:53;;;;;;;7;4.3;;;;;;;;;;;;;
2021/10/15 18:45:18;;;;;;;7;4.3;;;;;;;;;;;;;
2021/10/15 18:47:44;;;;;;;6.7;4.7;;;;;;;;;;;;;
2021/10/15 18:50:10;;;;;;;5.3;4.3;;;;;;;;;;;;;
2021/10/15 18:52:35;;;;;;;12;7.3;;;;;;;;;;;;;
2021/10/15 18:55:00;;;;;;;8.3;5.2;;;;;;;;;;;;;
2021/10/15 18:57:27;;;;;;;6.7;4.4;;;;;;;;;;;;;
2021/10/15 18:59:53;;;;;;;7.2;4.1;;;;;;;;;;;;;
2021/10/15 19:02:17;;;;;;;3.8;3;;;;;;;;;;;;;
2021/10/15 19:04:43;;;;;;;4.2;3.2;;;;;;;;;;;;;
2021/10/15 19:07:08;;;;;;;4.3;3.3;;;;;;;;;;;;;
2021/10/15 19:09:33;;;;;;;5.9;3;;;;;;;;;;;;;
2021/10/15 19:11:58;;;;;;;5.8;3.1;;;;;;;;;;;;;
2021/10/15 19:14:23;;;;;;;18.5;9.4;;;;;;;;;;;;;
2021/10/15 19:16:50;;;;;;;8.5;5.2;;;;;;;;;;;;;
2021/10/15 19:19:15;;;;;;;7.2;4.7;;;;;;;;;;;;;
2021/10/15 19:21:41;;;;;;;6.4;4.5;;;;;;;;;;;;;
2021/10/15 19:24:07;;;;;;;7.9;4.7;;;;;;;;;;;;;
2021/10/15 19:26:32;;;;;;;5.7;4.5;;;;;;;;;;;;;
2021/10/15 19:28:57;;;;;;;6.2;4.3;;;;;;;;;;;;;
2021/10/15 19:31:29;;;;;;;6.2;4.3;;;;;;;;;;;;;
2021/10/15 19:34:43;;;;;;;8.9;7.4;;;;;;;;;;;;;
2021/10/15 19:36:55;;;;;;;4.6;3;;;;;;;;;;;;;
2021/10/15 19:39:18;;;;;;;10.7;7.5;;;;;;;;;;;;;
2021/10/15 19:41:44;;;;;;;34.4;22.2;;;;;;;;;;;;;
2021/10/15 19:44:09;;;;;;;12.2;6.6;;;;;;;;;;;;;
2021/10/15 19:46:35;;;;;;;9.2;5.8;;;;;;;;;;;;;